createdAt,value
2023-04-05T00:00:15.324Z,341.00
2023-04-05T00:01:15.345Z,354.00
2023-04-05T00:02:15.327Z,355.00
2023-04-05T00:03:15.338Z,310.00
2023-04-05T00:04:15.374Z,309.00
2023-04-05T00:05:15.282Z,320.00
2023-04-05T00:06:15.275Z,329.00
2023-04-05T00:07:15.242Z,321.00
2023-04-05T00:08:15.218Z,312.00
2023-04-05T00:09:15.214Z,313.00
2023-04-05T00:10:15.186Z,305.00
2023-04-05T00:11:15.178Z,296.00
2023-04-05T00:12:15.214Z,280.00
2023-04-05T00:13:15.167Z,271.00
2023-04-05T00:14:15.163Z,266.00
2023-04-05T00:15:15.159Z,288.00
2023-04-05T00:16:15.150Z,333.00
2023-04-05T00:17:15.143Z,330.00
2023-04-05T00:18:15.100Z,326.00
2023-04-05T00:19:15.093Z,312.00
2023-04-05T00:20:15.074Z,314.00
2023-04-05T00:21:15.051Z,326.00
2023-04-05T00:22:15.040Z,330.00
2023-04-05T00:23:15.083Z,344.00
2023-04-05T00:24:15.001Z,361.00
2023-04-05T00:25:15.025Z,374.00
2023-04-05T00:26:15.014Z,384.00
2023-04-05T00:27:14.978Z,393.00
2023-04-05T00:28:14.975Z,390.00
2023-04-05T00:29:14.978Z,389.00
2023-04-05T00:30:14.942Z,392.00
2023-04-05T00:31:14.949Z,389.00
2023-04-05T00:32:14.954Z,379.00
2023-04-05T00:33:14.898Z,375.00
2023-04-05T00:34:14.952Z,380.00
2023-04-05T00:35:14.895Z,373.00
2023-04-05T00:36:14.923Z,336.00
2023-04-05T00:37:14.868Z,333.00
2023-04-05T00:38:14.838Z,333.00
2023-04-05T00:39:14.846Z,341.00
2023-04-05T00:40:14.851Z,343.00
2023-04-05T00:41:14.829Z,333.00
2023-04-05T00:42:14.831Z,329.00
2023-04-05T00:43:14.820Z,335.00
2023-04-05T00:44:14.782Z,312.00
2023-04-05T00:45:14.776Z,319.00
2023-04-05T00:46:14.750Z,305.00
2023-04-05T00:47:14.748Z,311.00
2023-04-05T00:48:14.712Z,324.00
2023-04-05T00:49:14.735Z,343.00
2023-04-05T00:50:14.726Z,349.00
2023-04-05T00:51:14.724Z,356.00
2023-04-05T00:52:14.769Z,365.00
2023-04-05T00:53:14.679Z,367.00
2023-04-05T00:54:14.653Z,374.00
2023-04-05T00:55:14.623Z,380.00
2023-04-05T00:56:14.634Z,387.00
2023-04-05T00:57:14.635Z,402.00
2023-04-05T00:58:14.610Z,406.00
2023-04-05T00:59:14.622Z,405.00
2023-04-05T01:00:14.564Z,400.00
2023-04-05T01:01:14.601Z,395.00
2023-04-05T01:02:14.713Z,386.00
2023-04-05T01:03:14.523Z,381.00
2023-04-05T01:04:14.580Z,375.00
2023-04-05T01:05:14.539Z,370.00
2023-04-05T01:06:16.086Z,369.00
2023-04-05T01:07:14.490Z,367.00
2023-04-05T01:08:14.454Z,369.00
2023-04-05T01:09:14.448Z,366.00
2023-04-05T01:10:14.440Z,375.00
2023-04-05T01:11:14.449Z,379.00
2023-04-05T01:12:14.443Z,385.00
2023-04-05T01:13:14.392Z,384.00
2023-04-05T01:14:14.427Z,396.00
2023-04-05T01:15:14.373Z,400.00
2023-04-05T01:16:14.374Z,394.00
2023-04-05T01:17:14.364Z,391.00
2023-04-05T01:18:14.379Z,387.00
2023-04-05T01:19:14.321Z,387.00
2023-04-05T01:20:14.330Z,384.00
2023-04-05T01:21:14.319Z,385.00
2023-04-05T01:22:14.461Z,384.00
2023-04-05T01:23:14.291Z,390.00
2023-04-05T01:24:14.257Z,396.00
2023-04-05T01:25:14.283Z,394.00
2023-04-05T01:26:14.251Z,391.00
2023-04-05T01:27:14.221Z,395.00
2023-04-05T01:28:14.245Z,402.00
2023-04-05T01:29:14.199Z,406.00
2023-04-05T01:30:14.172Z,407.00
2023-04-05T01:31:14.170Z,401.00
2023-04-05T01:32:14.167Z,405.00
2023-04-05T01:33:14.205Z,390.00
2023-04-05T01:34:14.123Z,374.00
2023-04-05T01:35:14.116Z,357.00
2023-04-05T01:36:14.134Z,311.00
2023-04-05T01:37:14.094Z,310.00
2023-04-05T01:38:14.108Z,314.00
2023-04-05T01:39:14.086Z,341.00
2023-04-05T01:40:14.144Z,351.00
2023-04-05T01:41:14.055Z,368.00
2023-04-05T01:42:14.027Z,368.00
2023-04-05T01:43:14.059Z,386.00
2023-04-05T01:44:14.015Z,389.00
2023-04-05T01:45:14.006Z,377.00
2023-04-05T01:46:14.058Z,366.00
2023-04-05T01:47:13.991Z,372.00
2023-04-05T01:48:13.971Z,384.00
2023-04-05T01:49:13.958Z,399.00
2023-04-05T01:50:13.963Z,408.00
2023-04-05T01:51:13.955Z,408.00
2023-04-05T01:52:13.906Z,413.00
2023-04-05T01:53:13.892Z,396.00
2023-04-05T01:54:13.877Z,395.00
2023-04-05T01:55:13.899Z,394.00
2023-04-05T01:56:13.869Z,392.00
2023-04-05T01:57:13.851Z,391.00
2023-04-05T01:58:13.833Z,398.00
2023-04-05T01:59:13.881Z,402.00
2023-04-05T02:00:13.818Z,402.00
2023-04-05T02:01:13.833Z,404.00
2023-04-05T02:02:13.787Z,399.00
2023-04-05T02:03:13.845Z,382.00
2023-04-05T02:04:13.772Z,370.00
2023-04-05T02:05:13.745Z,355.00
2023-04-05T02:06:13.751Z,340.00
2023-04-05T02:07:13.731Z,330.00
2023-04-05T02:08:13.734Z,321.00
2023-04-05T02:09:13.705Z,330.00
2023-04-05T02:10:13.694Z,329.00
2023-04-05T02:11:13.687Z,313.00
2023-04-05T02:12:13.664Z,284.00
2023-04-05T02:13:13.661Z,288.00
2023-04-05T02:14:13.638Z,280.00
2023-04-05T02:15:13.637Z,281.00
2023-04-05T02:16:13.660Z,281.00
2023-04-05T02:17:13.595Z,279.00
2023-04-05T02:18:13.577Z,282.00
2023-04-05T02:19:13.583Z,276.00
2023-04-05T02:20:13.568Z,283.00
2023-04-05T02:21:13.565Z,286.00
2023-04-05T02:22:13.548Z,314.00
2023-04-05T02:23:13.546Z,350.00
2023-04-05T02:24:13.511Z,364.00
2023-04-05T02:25:13.665Z,395.00
2023-04-05T02:26:13.565Z,397.00
2023-04-05T02:27:13.481Z,431.00
2023-04-05T02:28:13.472Z,445.00
2023-04-05T02:29:13.445Z,468.00
2023-04-05T02:30:13.448Z,484.00
2023-04-05T02:31:13.501Z,474.00
2023-04-05T02:32:13.422Z,483.00
2023-04-05T02:33:13.390Z,481.00
2023-04-05T02:34:13.394Z,470.00
2023-04-05T02:35:13.391Z,493.00
2023-04-05T02:36:13.357Z,483.00
2023-04-05T02:37:13.339Z,468.00
2023-04-05T02:38:13.360Z,473.00
2023-04-05T02:39:13.327Z,475.00
2023-04-05T02:40:13.325Z,468.00
2023-04-05T02:41:13.298Z,463.00
2023-04-05T02:42:13.305Z,470.00
2023-04-05T02:43:13.281Z,458.00
2023-04-05T02:44:13.250Z,455.00
2023-04-05T02:45:13.254Z,436.00
2023-04-05T02:46:13.238Z,443.00
2023-04-05T02:47:13.211Z,427.00
2023-04-05T02:48:13.227Z,403.00
2023-04-05T02:49:13.206Z,403.00
2023-04-05T02:50:13.210Z,394.00
2023-04-05T02:51:13.174Z,381.00
2023-04-05T02:52:13.146Z,397.00
2023-04-05T02:53:13.160Z,374.00
2023-04-05T02:54:13.158Z,380.00
2023-04-05T02:55:13.137Z,385.00
2023-04-05T02:56:13.128Z,398.00
2023-04-05T02:57:13.086Z,392.00
2023-04-05T02:58:13.103Z,418.00
2023-04-05T02:59:13.139Z,418.00
2023-04-05T03:00:13.070Z,420.00
2023-04-05T03:01:13.138Z,423.00
2023-04-05T03:02:13.035Z,421.00
2023-04-05T03:03:13.104Z,423.00
2023-04-05T03:04:13.008Z,425.00
2023-04-05T03:05:12.986Z,431.00
2023-04-05T03:06:12.987Z,428.00
2023-04-05T03:07:12.999Z,422.00
2023-04-05T03:08:12.956Z,411.00
2023-04-05T03:09:12.951Z,422.00
2023-04-05T03:10:12.968Z,440.00
2023-04-05T03:11:12.927Z,464.00
2023-04-05T03:12:12.917Z,456.00
2023-04-05T03:13:12.945Z,457.00
2023-04-05T03:14:12.869Z,463.00
2023-04-05T03:15:12.893Z,479.00
2023-04-05T03:16:12.896Z,464.00
2023-04-05T03:17:12.830Z,472.00
2023-04-05T03:18:12.856Z,469.00
2023-04-05T03:19:12.826Z,476.00
2023-04-05T03:20:12.799Z,453.00
2023-04-05T03:21:12.800Z,439.00
2023-04-05T03:22:12.782Z,422.00
2023-04-05T03:23:12.778Z,410.00
2023-04-05T03:24:12.756Z,425.00
2023-04-05T03:25:12.816Z,455.00
2023-04-05T03:26:12.746Z,442.00
2023-04-05T03:27:12.745Z,444.00
2023-04-05T03:28:12.749Z,440.00
2023-04-05T03:29:12.705Z,434.00
2023-04-05T03:30:12.698Z,449.00
2023-04-05T03:31:12.706Z,465.00
2023-04-05T03:32:12.631Z,442.00
2023-04-05T03:33:12.645Z,439.00
2023-04-05T03:34:12.639Z,424.00
2023-04-05T03:35:12.607Z,413.00
2023-04-05T03:36:12.596Z,423.00
2023-04-05T03:37:12.598Z,419.00
2023-04-05T03:38:12.568Z,466.00
2023-04-05T03:39:12.577Z,442.00
2023-04-05T03:40:12.599Z,458.00
2023-04-05T03:41:12.538Z,469.00
2023-04-05T03:42:12.529Z,493.00
2023-04-05T03:43:12.528Z,490.00
2023-04-05T03:44:12.531Z,512.00
2023-04-05T03:45:12.505Z,506.00
2023-04-05T03:46:12.525Z,506.00
2023-04-05T03:47:12.481Z,492.00
2023-04-05T03:48:12.473Z,477.00
2023-04-05T03:49:12.426Z,489.00
2023-04-05T03:50:12.424Z,486.00
2023-04-05T03:51:12.429Z,497.00
2023-04-05T03:52:12.414Z,494.00
2023-04-05T03:53:12.371Z,495.00
2023-04-05T03:54:12.383Z,497.00
2023-04-05T03:55:12.377Z,493.00
2023-04-05T03:56:12.337Z,510.00
2023-04-05T03:57:12.336Z,514.00
2023-04-05T03:58:12.322Z,496.00
2023-04-05T03:59:12.330Z,498.00
2023-04-05T04:00:12.305Z,514.00
2023-04-05T04:01:12.275Z,510.00
2023-04-05T04:02:12.308Z,518.00
2023-04-05T04:03:12.298Z,508.00
2023-04-05T04:04:12.275Z,509.00
2023-04-05T04:05:12.297Z,500.00
2023-04-05T04:06:12.257Z,517.00
2023-04-05T04:07:12.219Z,512.00
2023-04-05T04:08:12.185Z,500.00
2023-04-05T04:09:12.159Z,498.00
2023-04-05T04:10:12.160Z,501.00
2023-04-05T04:11:12.170Z,501.00
2023-04-05T04:12:12.148Z,494.00
2023-04-05T04:13:12.123Z,495.00
2023-04-05T04:14:12.120Z,482.00
2023-04-05T04:15:12.113Z,502.00
2023-04-05T04:16:12.114Z,502.00
2023-04-05T04:17:12.057Z,505.00
2023-04-05T04:18:12.059Z,504.00
2023-04-05T04:19:12.058Z,505.00
2023-04-05T04:20:12.066Z,508.00
2023-04-05T04:21:12.032Z,501.00
2023-04-05T04:22:12.011Z,498.00
2023-04-05T04:23:12.004Z,500.00
2023-04-05T04:24:11.967Z,503.00
2023-04-05T04:25:11.955Z,501.00
2023-04-05T04:26:11.963Z,505.00
2023-04-05T04:27:11.946Z,500.00
2023-04-05T04:28:11.923Z,510.00
2023-04-05T04:29:11.908Z,506.00
2023-04-05T04:30:11.920Z,512.00
2023-04-05T04:31:11.901Z,509.00
2023-04-05T04:32:11.872Z,513.00
2023-04-05T04:33:11.914Z,515.00
2023-04-05T04:34:11.864Z,512.00
2023-04-05T04:35:11.834Z,501.00
2023-04-05T04:36:11.882Z,496.00
2023-04-05T04:37:11.817Z,492.00
2023-04-05T04:38:11.793Z,503.00
2023-04-05T04:39:11.781Z,502.00
2023-04-05T04:40:11.803Z,529.00
2023-04-05T04:41:11.755Z,527.00
2023-04-05T04:42:11.805Z,511.00
2023-04-05T04:43:11.748Z,520.00
2023-04-05T04:44:11.758Z,515.00
2023-04-05T04:45:11.696Z,522.00
2023-04-05T04:46:11.752Z,504.00
2023-04-05T04:47:13.076Z,535.00
2023-04-05T04:48:11.686Z,529.00
2023-04-05T04:49:11.674Z,507.00
2023-04-05T04:50:11.653Z,505.00
2023-04-05T04:51:11.631Z,519.00
2023-04-05T04:52:11.615Z,502.00
2023-04-05T04:53:11.650Z,502.00
2023-04-05T04:54:11.625Z,532.00
2023-04-05T04:55:11.610Z,508.00
2023-04-05T04:56:11.591Z,498.00
2023-04-05T04:57:11.556Z,502.00
2023-04-05T04:58:11.581Z,483.00
2023-04-05T04:59:11.604Z,435.00
2023-04-05T05:00:11.517Z,439.00
2023-04-05T05:01:11.592Z,418.00
2023-04-05T05:02:11.511Z,408.00
2023-04-05T05:03:11.678Z,402.00
2023-04-05T05:04:11.562Z,396.00
2023-04-05T05:05:11.498Z,412.00
2023-04-05T05:06:11.470Z,405.00
2023-04-05T05:07:11.462Z,419.00
2023-04-05T05:08:11.431Z,408.00
2023-04-05T05:09:11.454Z,401.00
2023-04-05T05:10:11.422Z,403.00
2023-04-05T05:11:11.402Z,412.00
2023-04-05T05:12:11.380Z,414.00
2023-04-05T05:13:11.412Z,412.00
2023-04-05T05:14:11.345Z,401.00
2023-04-05T05:15:11.331Z,407.00
2023-04-05T05:16:11.366Z,387.00
2023-04-05T05:17:11.337Z,390.00
2023-04-05T05:18:11.331Z,399.00
2023-04-05T05:19:11.293Z,402.00
2023-04-05T05:20:11.532Z,388.00
2023-04-05T05:21:11.276Z,392.00
2023-04-05T05:22:11.262Z,409.00
2023-04-05T05:23:11.246Z,413.00
2023-04-05T05:24:11.237Z,419.00
2023-04-05T05:25:11.218Z,408.00
2023-04-05T05:26:11.213Z,398.00
2023-04-05T05:27:11.186Z,404.00
2023-04-05T05:28:11.173Z,401.00
2023-04-05T05:29:11.161Z,399.00
2023-04-05T05:30:11.153Z,408.00
2023-04-05T05:31:11.165Z,400.00
2023-04-05T05:32:11.125Z,400.00
2023-04-05T05:33:11.209Z,394.00
2023-04-05T05:34:11.119Z,384.00
2023-04-05T05:35:11.088Z,374.00
2023-04-05T05:36:11.057Z,373.00
2023-04-05T05:37:11.058Z,377.00
2023-04-05T05:38:13.763Z,384.00
2023-04-05T05:39:11.204Z,383.00
2023-04-05T05:40:11.033Z,383.00
2023-04-05T05:41:11.012Z,384.00
2023-04-05T05:42:11.000Z,382.00
2023-04-05T05:43:10.978Z,405.00
2023-04-05T05:44:10.989Z,404.00
2023-04-05T05:45:10.941Z,396.00
2023-04-05T05:46:11.009Z,394.00
2023-04-05T05:47:10.927Z,385.00
2023-04-05T05:48:10.925Z,384.00
2023-04-05T05:49:10.905Z,385.00
2023-04-05T05:50:11.029Z,380.00
2023-04-05T05:51:10.895Z,380.00
2023-04-05T05:52:10.853Z,386.00
2023-04-05T05:53:10.865Z,404.00
2023-04-05T05:54:10.839Z,435.00
2023-04-05T05:55:10.838Z,440.00
2023-04-05T05:56:10.819Z,434.00
2023-04-05T05:57:10.810Z,429.00
2023-04-05T05:58:10.774Z,431.00
2023-04-05T05:59:10.919Z,434.00
2023-04-05T06:00:10.881Z,436.00
2023-04-05T06:01:10.750Z,424.00
2023-04-05T06:02:10.734Z,427.00
2023-04-05T06:03:10.777Z,427.00
2023-04-05T06:04:10.791Z,426.00
2023-04-05T06:05:10.727Z,428.00
2023-04-05T06:06:10.713Z,431.00
2023-04-05T06:07:10.658Z,428.00
2023-04-05T06:08:10.654Z,429.00
2023-04-05T06:09:10.642Z,434.00
2023-04-05T06:10:10.645Z,435.00
2023-04-05T06:11:10.655Z,429.00
2023-04-05T06:12:10.606Z,431.00
2023-04-05T06:13:10.583Z,428.00
2023-04-05T06:14:10.578Z,420.00
2023-04-05T06:15:10.591Z,403.00
2023-04-05T06:16:10.556Z,392.00
2023-04-05T06:17:10.546Z,392.00
2023-04-05T06:18:10.620Z,386.00
2023-04-05T06:19:10.523Z,392.00
2023-04-05T06:20:10.539Z,424.00
2023-04-05T06:21:10.498Z,420.00
2023-04-05T06:22:10.475Z,418.00
2023-04-05T06:23:10.472Z,378.00
2023-04-05T06:24:10.446Z,401.00
2023-04-05T06:25:10.441Z,414.00
2023-04-05T06:26:10.450Z,418.00
2023-04-05T06:27:10.431Z,415.00
2023-04-05T06:28:10.413Z,423.00
2023-04-05T06:29:10.384Z,422.00
2023-04-05T06:30:10.380Z,419.00
2023-04-05T06:31:11.559Z,420.00
2023-04-05T06:32:10.495Z,426.00
2023-04-05T06:33:10.424Z,418.00
2023-04-05T06:34:10.329Z,420.00
2023-04-05T06:35:10.346Z,386.00
2023-04-05T06:36:10.336Z,395.00
2023-04-05T06:37:10.270Z,422.00
2023-04-05T06:38:10.277Z,417.00
2023-04-05T06:39:10.272Z,399.00
2023-04-05T06:40:10.232Z,374.00
2023-04-05T06:41:10.225Z,370.00
2023-04-05T06:42:10.232Z,368.00
2023-04-05T06:43:10.229Z,364.00
2023-04-05T06:44:10.207Z,358.00
2023-04-05T06:45:10.164Z,361.00
2023-04-05T06:46:10.251Z,361.00
2023-04-05T06:47:10.146Z,365.00
2023-04-05T06:48:10.194Z,362.00
2023-04-05T06:49:10.124Z,367.00
2023-04-05T06:50:10.106Z,365.00
2023-04-05T06:51:10.157Z,365.00
2023-04-05T06:52:10.103Z,363.00
2023-04-05T06:53:10.059Z,362.00
2023-04-05T06:54:10.099Z,363.00
2023-04-05T06:55:10.037Z,370.00
2023-04-05T06:56:10.058Z,372.00
2023-04-05T06:57:10.024Z,372.00
2023-04-05T06:58:10.015Z,365.00
2023-04-05T06:59:10.091Z,357.00
2023-04-05T07:00:09.993Z,357.00
2023-04-05T07:01:10.018Z,355.00
2023-04-05T07:02:09.961Z,350.00
2023-04-05T07:03:09.983Z,346.00
2023-04-05T07:04:10.020Z,345.00
2023-04-05T07:05:09.919Z,345.00
2023-04-05T07:06:09.940Z,346.00
2023-04-05T07:07:09.945Z,342.00
2023-04-05T07:08:09.863Z,338.00
2023-04-05T07:09:09.852Z,333.00
2023-04-05T07:10:09.889Z,335.00
2023-04-05T07:11:09.860Z,338.00
2023-04-05T07:12:09.883Z,337.00
2023-04-05T07:13:09.838Z,338.00
2023-04-05T07:14:09.827Z,335.00
2023-04-05T07:15:09.776Z,342.00
2023-04-05T07:16:09.871Z,369.00
2023-04-05T07:17:09.764Z,384.00
2023-04-05T07:18:09.755Z,398.00
2023-04-05T07:19:09.789Z,380.00
2023-04-05T07:20:09.741Z,371.00
2023-04-05T07:21:09.733Z,362.00
2023-04-05T07:22:09.712Z,368.00
2023-04-05T07:23:09.682Z,377.00
2023-04-05T07:24:09.713Z,376.00
2023-04-05T07:25:09.659Z,364.00
2023-04-05T07:26:09.667Z,349.00
2023-04-05T07:27:09.659Z,344.00
2023-04-05T07:28:09.623Z,346.00
2023-04-05T07:29:09.624Z,351.00
2023-04-05T07:30:09.639Z,348.00
2023-04-05T07:31:09.642Z,347.00
2023-04-05T07:32:09.607Z,349.00
2023-04-05T07:33:09.563Z,364.00
2023-04-05T07:34:09.553Z,385.00
2023-04-05T07:35:09.551Z,393.00
2023-04-05T07:36:09.553Z,384.00
2023-04-05T07:37:09.502Z,374.00
2023-04-05T07:38:09.535Z,367.00
2023-04-05T07:39:09.617Z,357.00
2023-04-05T07:40:09.458Z,352.00
2023-04-05T07:41:09.434Z,351.00
2023-04-05T07:42:09.436Z,349.00
2023-04-05T07:43:09.442Z,349.00
2023-04-05T07:44:09.460Z,347.00
2023-04-05T07:45:09.407Z,346.00
2023-04-05T07:46:09.461Z,339.00
2023-04-05T07:47:09.388Z,330.00
2023-04-05T07:48:09.423Z,329.00
2023-04-05T07:49:09.356Z,331.00
2023-04-05T07:50:09.359Z,333.00
2023-04-05T07:51:09.301Z,333.00
2023-04-05T07:52:09.308Z,328.00
2023-04-05T07:53:09.302Z,329.00
2023-04-05T07:54:09.281Z,341.00
2023-04-05T07:55:09.294Z,375.00
2023-04-05T07:56:09.310Z,381.00
2023-04-05T07:57:09.237Z,326.00
2023-04-05T07:58:09.254Z,323.00
2023-04-05T07:59:09.322Z,326.00
2023-04-05T08:00:09.218Z,329.00
2023-04-05T08:01:09.202Z,327.00
2023-04-05T08:02:14.456Z,328.00
2023-04-05T08:03:09.218Z,330.00
2023-04-05T08:04:09.281Z,328.00
2023-04-05T08:05:09.157Z,324.00
2023-04-05T08:06:09.144Z,330.00
2023-04-05T08:07:09.117Z,331.00
2023-04-05T08:08:09.115Z,333.00
2023-04-05T08:09:09.135Z,333.00
2023-04-05T08:10:09.082Z,329.00
2023-04-05T08:11:09.060Z,328.00
2023-04-05T08:12:09.052Z,328.00
2023-04-05T08:13:09.026Z,328.00
2023-04-05T08:14:09.063Z,333.00
2023-04-05T08:15:09.035Z,371.00
2023-04-05T08:16:09.044Z,339.00
2023-04-05T08:17:08.969Z,332.00
2023-04-05T08:18:09.028Z,335.00
2023-04-05T08:19:08.959Z,322.00
2023-04-05T08:20:08.928Z,371.00
2023-04-05T08:21:08.932Z,347.00
2023-04-05T08:22:08.933Z,322.00
2023-04-05T08:23:08.901Z,372.00
2023-04-05T08:24:08.946Z,302.00
2023-04-05T08:25:08.868Z,325.00
2023-04-05T08:26:08.904Z,348.00
2023-04-05T08:27:08.879Z,338.00
2023-04-05T08:28:08.842Z,340.00
2023-04-05T08:29:08.817Z,341.00
2023-04-05T08:30:08.890Z,332.00
2023-04-05T08:31:08.855Z,316.00
2023-04-05T08:32:08.955Z,316.00
2023-04-05T08:33:08.832Z,407.00
2023-04-05T08:34:08.862Z,457.00
2023-04-05T08:35:08.746Z,449.00
2023-04-05T08:36:08.775Z,453.00
2023-04-05T08:37:08.755Z,464.00
2023-04-05T08:38:15.199Z,430.00
2023-04-05T08:39:08.670Z,382.00
2023-04-05T08:40:08.647Z,338.00
2023-04-05T08:41:08.656Z,347.00
2023-04-05T08:42:08.621Z,409.00
2023-04-05T08:43:08.621Z,386.00
2023-04-05T08:44:08.827Z,375.00
2023-04-05T08:45:08.618Z,369.00
2023-04-05T08:46:08.616Z,365.00
2023-04-05T08:47:08.583Z,377.00
2023-04-05T08:48:08.572Z,403.00
2023-04-05T08:49:08.718Z,365.00
2023-04-05T08:50:08.539Z,335.00
2023-04-05T08:51:08.547Z,314.00
2023-04-05T08:52:08.583Z,246.00
2023-04-05T08:53:08.505Z,290.00
2023-04-05T08:54:08.499Z,310.00
2023-04-05T08:55:08.519Z,326.00
2023-04-05T08:56:08.449Z,341.00
2023-04-05T08:57:08.458Z,350.00
2023-04-05T08:58:08.469Z,353.00
2023-04-05T08:59:08.537Z,357.00
2023-04-05T09:00:08.415Z,358.00
2023-04-05T09:01:08.427Z,363.00
2023-04-05T09:02:08.445Z,364.00
2023-04-05T09:03:08.455Z,366.00
2023-04-05T09:04:08.366Z,366.00
2023-04-05T09:05:08.355Z,366.00
2023-04-05T09:06:08.350Z,367.00
2023-04-05T09:07:08.316Z,365.00
2023-04-05T09:08:08.275Z,365.00
2023-04-05T09:09:08.308Z,367.00
2023-04-05T09:10:08.291Z,366.00
2023-04-05T09:11:08.268Z,365.00
2023-04-05T09:12:08.243Z,365.00
2023-04-05T09:13:09.167Z,364.00
2023-04-05T09:14:08.222Z,365.00
2023-04-05T09:15:08.216Z,364.00
2023-04-05T09:16:08.195Z,364.00
2023-04-05T09:17:08.190Z,363.00
2023-04-05T09:18:19.122Z,363.00
2023-04-05T09:19:08.424Z,367.00
2023-04-05T09:20:08.146Z,367.00
2023-04-05T09:21:08.140Z,367.00
2023-04-05T09:22:08.131Z,366.00
2023-04-05T09:23:08.090Z,367.00
2023-04-05T09:24:08.092Z,367.00
2023-04-05T09:25:08.082Z,368.00
2023-04-05T09:26:08.052Z,374.00
2023-04-05T09:27:08.049Z,368.00
2023-04-05T09:28:08.023Z,367.00
2023-04-05T09:29:08.002Z,367.00
2023-04-05T09:30:08.037Z,366.00
2023-04-05T09:31:08.040Z,369.00
2023-04-05T09:32:07.982Z,371.00
2023-04-05T09:33:08.003Z,371.00
2023-04-05T09:34:07.957Z,369.00
2023-04-05T09:35:07.939Z,371.00
2023-04-05T09:36:07.935Z,372.00
2023-04-05T09:37:07.927Z,373.00
2023-04-05T09:38:07.903Z,370.00
2023-04-05T09:39:08.135Z,370.00
2023-04-05T09:40:07.915Z,372.00
2023-04-05T09:41:07.873Z,372.00
2023-04-05T09:42:07.857Z,370.00
2023-04-05T09:43:07.876Z,370.00
2023-04-05T09:44:07.828Z,370.00
2023-04-05T09:45:07.830Z,374.00
2023-04-05T09:46:07.915Z,373.00
2023-04-05T09:47:07.790Z,371.00
2023-04-05T09:48:07.878Z,376.00
2023-04-05T09:49:07.799Z,377.00
2023-04-05T09:50:07.765Z,377.00
2023-04-05T09:52:07.741Z,370.00
2023-04-05T09:53:07.749Z,366.00
2023-04-05T09:54:07.734Z,370.00
2023-04-05T09:55:07.700Z,374.00
2023-04-05T09:56:07.661Z,375.00
2023-04-05T09:57:07.691Z,375.00
2023-04-05T09:58:07.677Z,377.00
2023-04-05T09:59:07.645Z,378.00
2023-04-05T10:00:07.625Z,374.00
2023-04-05T10:02:07.794Z,377.00
2023-04-05T10:03:07.732Z,382.00
2023-04-05T10:04:07.598Z,387.00
2023-04-05T10:05:07.578Z,389.00
2023-04-05T10:06:07.525Z,388.00
2023-04-05T10:07:07.555Z,384.00
2023-04-05T10:08:07.501Z,379.00
2023-04-05T10:09:07.621Z,380.00
2023-04-05T10:10:07.516Z,384.00
2023-04-05T10:11:07.471Z,385.00
2023-04-05T10:12:07.436Z,383.00
2023-04-05T10:13:07.448Z,382.00
2023-04-05T10:14:07.399Z,380.00
2023-04-05T10:15:07.425Z,379.00
2023-04-05T10:16:07.399Z,376.00
2023-04-05T10:17:07.375Z,372.00
2023-04-05T10:18:07.379Z,368.00
2023-04-05T10:19:07.368Z,368.00
2023-04-05T10:20:07.336Z,365.00
2023-04-05T10:21:07.348Z,348.00
2023-04-05T10:22:07.298Z,349.00
2023-04-05T10:23:07.290Z,380.00
2023-04-05T10:24:07.281Z,380.00
2023-04-05T10:25:07.272Z,375.00
2023-04-05T10:26:07.266Z,371.00
2023-04-05T10:27:07.250Z,370.00
2023-04-05T10:28:07.217Z,369.00
2023-04-05T10:29:07.237Z,367.00
2023-04-05T10:30:07.228Z,368.00
2023-04-05T10:31:07.250Z,366.00
2023-04-05T10:32:07.239Z,360.00
2023-04-05T10:33:07.253Z,351.00
2023-04-05T10:34:07.161Z,360.00
2023-04-05T10:35:07.145Z,319.00
2023-04-05T10:36:07.197Z,325.00
2023-04-05T10:37:07.137Z,319.00
2023-04-05T10:38:07.100Z,271.00
2023-04-05T10:39:07.102Z,271.00
2023-04-05T10:40:07.113Z,264.00
2023-04-05T10:41:07.072Z,248.00
2023-04-05T10:42:07.027Z,336.00
2023-04-05T10:43:07.013Z,334.00
2023-04-05T10:44:22.547Z,337.00
2023-04-05T10:45:07.084Z,400.00
2023-04-05T10:46:06.994Z,330.00
2023-04-05T10:47:06.971Z,393.00
2023-04-05T10:48:07.033Z,375.00
2023-04-05T10:49:06.951Z,370.00
2023-04-05T10:50:06.941Z,356.00
2023-04-05T10:51:06.917Z,359.00
2023-04-05T10:52:06.913Z,369.00
2023-04-05T10:53:06.899Z,373.00
2023-04-05T10:54:06.893Z,372.00
2023-04-05T10:55:06.883Z,373.00
2023-04-05T10:56:06.868Z,370.00
2023-04-05T10:57:09.077Z,367.00
2023-04-05T10:58:06.888Z,365.00
2023-04-05T10:59:06.859Z,364.00
2023-04-05T11:00:06.863Z,364.00
2023-04-05T11:01:06.866Z,365.00
2023-04-05T11:02:06.810Z,361.00
2023-04-05T11:03:06.818Z,357.00
2023-04-05T11:04:06.750Z,350.00
2023-04-05T11:05:06.830Z,329.00
2023-04-05T11:06:06.768Z,327.00
2023-04-05T11:07:06.724Z,305.00
2023-04-05T11:08:06.685Z,304.00
2023-04-05T11:09:06.689Z,307.00
2023-04-05T11:10:06.711Z,325.00
2023-04-05T11:11:06.672Z,353.00
2023-04-05T11:12:06.642Z,358.00
2023-04-05T11:13:06.649Z,368.00
2023-04-05T11:14:06.622Z,411.00
2023-04-05T11:15:06.595Z,428.00
2023-04-05T11:16:06.594Z,429.00
2023-04-05T11:17:06.633Z,355.00
2023-04-05T11:18:06.640Z,502.00
2023-04-05T11:19:06.552Z,448.00
2023-04-05T11:20:06.571Z,445.00
2023-04-05T11:21:06.561Z,408.00
2023-04-05T11:22:06.504Z,279.00
2023-04-05T11:23:06.513Z,424.00
2023-04-05T11:24:06.481Z,388.00
2023-04-05T11:25:06.477Z,348.00
2023-04-05T11:26:06.482Z,307.00
2023-04-05T11:27:06.444Z,306.00
2023-04-05T11:28:06.431Z,473.00
2023-04-05T11:29:06.422Z,411.00
2023-04-05T11:30:06.424Z,374.00
2023-04-05T11:31:06.471Z,347.00
2023-04-05T11:32:06.402Z,364.00
2023-04-05T11:33:06.411Z,361.00
2023-04-05T11:34:06.353Z,328.00
2023-04-05T11:35:06.373Z,311.00
2023-04-05T11:36:06.395Z,306.00
2023-04-05T11:37:06.336Z,275.00
2023-04-05T11:38:06.330Z,263.00
2023-04-05T11:39:06.285Z,256.00
2023-04-05T11:40:06.863Z,263.00
2023-04-05T11:41:06.255Z,275.00
2023-04-05T11:42:06.239Z,295.00
2023-04-05T11:43:06.222Z,301.00
2023-04-05T11:44:06.225Z,298.00
2023-04-05T11:45:06.213Z,320.00
2023-04-05T11:46:06.269Z,315.00
2023-04-05T11:47:06.198Z,312.00
2023-04-05T11:48:06.188Z,313.00
2023-04-05T11:49:06.187Z,315.00
2023-04-05T11:50:06.141Z,313.00
2023-04-05T11:51:06.140Z,318.00
2023-04-05T11:52:06.128Z,323.00
2023-04-05T11:53:06.116Z,323.00
2023-04-05T11:54:06.121Z,325.00
2023-04-05T11:55:06.070Z,326.00
2023-04-05T11:56:06.094Z,321.00
2023-04-05T11:57:06.053Z,321.00
2023-04-05T11:58:06.062Z,320.00
2023-04-05T11:59:06.067Z,316.00
2023-04-05T12:00:06.011Z,323.00
2023-04-05T12:01:06.018Z,324.00
2023-04-05T12:02:05.992Z,322.00
2023-04-05T12:03:06.106Z,320.00
2023-04-05T12:04:06.032Z,312.00
2023-04-05T12:05:06.016Z,362.00
2023-04-05T12:06:06.036Z,357.00
2023-04-05T12:07:05.933Z,357.00
2023-04-05T12:08:05.898Z,352.00
2023-04-05T12:09:05.909Z,351.00
2023-04-05T12:10:05.899Z,349.00
2023-04-05T12:11:05.869Z,346.00
2023-04-05T12:12:05.865Z,344.00
2023-04-05T12:13:05.852Z,347.00
2023-04-05T12:14:05.815Z,349.00
2023-04-05T12:15:05.835Z,351.00
2023-04-05T12:16:05.835Z,352.00
2023-04-05T12:17:05.776Z,352.00
2023-04-05T12:18:05.827Z,348.00
2023-04-05T12:19:05.796Z,343.00
2023-04-05T12:20:05.752Z,339.00
2023-04-05T12:21:07.612Z,336.00
2023-04-05T12:22:05.710Z,336.00
2023-04-05T12:23:05.693Z,330.00
2023-04-05T12:24:05.690Z,332.00
2023-04-05T12:25:05.676Z,329.00
2023-04-05T12:26:05.668Z,318.00
2023-04-05T12:27:05.667Z,318.00
2023-04-05T12:28:05.643Z,305.00
2023-04-05T12:29:05.618Z,303.00
2023-04-05T12:30:05.688Z,304.00